Main page
METAR-TAF:

METAR-TAF

Airports :

Des Moines International Airport

Des Moines, Iowa, United States

latitude: 41-32-16N, longitude: 093-39-58W, elevation: 954 ft

Current weather observation

The report was made 28 minutes ago, at 07:54 UTC
Wind 5 mph from the West/Southwest
Temperature 34°F
Humidity 69%
Pressure 30.27 in. Hg
Visibility: 10 miles
Clear sky

METAR: KDSM 210754Z 24004KT 10SM CLR 01/M04 A3027 RMK AO2 SLP256 T00061039

Time: 03:22 (08:22 UTC)

Forecast

The report was made 3 hours and 2 minutes ago, at 05:20 UTC
Forecast valid from 21 at 06 UTC to 22 at 06 UTC
Wind 9 mph from the West/Northwest
Visibility: 6 miles
Clear sky
From 21 at 1700 UTC
Wind 14 mph from the Northwest
Visibility: 6 miles
Clear sky
From 22 at 0100 UTC
Wind 9 mph from the West
Visibility: 6 miles
Clear sky

TAF: KDSM 210520Z 2106/2206 30008KT P6SM SKC FM211700 31012KT P6SM SKC FM220100 26008KT P6SM SKC

Weather observations and forecasts of more than 4000 airports (METAR and TAF reports).

The available stations are represented by yellow and red dots on the map.

Hover mouse over dot to see the name of the station.

Then click to see weather observations and forecasts.

To change the map : click on the green buttons with a black cross to zoom in, on the green button with a dash to zoom out, or on the green arrows for adjacent maps.


METAR-TAF: